KFST/FST METAR and TAF weather

Enter ICAO airport designator
Station Type Date Time Source
KFST METAR 2022/01/18 07:53 UTC NOAA

KFST 180753Z AUTO 23012KT 10SM CLR 13/M09 A2996 RMK AO2 SLP113 T01281094


Station Type Date Time Source
KFST Decoded METAR 2022/01/18 07:53 UTC NOAA

FORT STOCKTON PECOS CO AIRPORT , TX, United States (KFST) 30-55N 102-55W 918M
Jan 18, 2022 - 02:53 AM EST / 2022.01.18 0753 UTC
Wind: from the SW (230 degrees) at 14 MPH (12 KT):0
Visibility: 10 mile(s):0
Sky conditions: clear
Temperature: 55.0 F (12.8 C)
Dew Point: 15.1 F (-9.4 C)
Relative Humidity: 20%
Pressure (altimeter): 29.96 in. Hg (1014 hPa)
ob: KFST 180753Z AUTO 23012KT 10SM CLR 13/M09 A2996 RMK AO2 SLP113 T01281094
cycle: 8

Station Type Date Time Source
KFST TAF 2022/01/18 06:22 UTC NOAA

TAF KFST 180520Z 1806/1906 22011KT P6SM FEW200
FM181600 26023G31KT P6SM SCT250
FM190100 26011KT P6SM SCT250

Example: see airport list